Time;durP1;ratioP1;P1;durP2;ratioP2;P2;SDS_P1;SDS_P2;PMS_P1;PMS_P2;Temp;Humidity;BMP_temperature;BMP_pressure;BME280_temperature;BME280_humidity;BME280_pressure;Samples;Min_cycle;Max_cycle;Signal;HPM_P1;HPM_P2
2023/12/19 00:01:30;;;;;;;85.03;46.92;;;4.00;73.40;;;;;;6345439;22;20074;-65
2023/12/19 00:03:56;;;;;;;73.82;42.80;;;3.90;73.30;;;;;;6317798;22;20049;-65
2023/12/19 00:06:22;;;;;;;72.50;39.60;;;3.90;73.40;;;;;;6344849;22;20048;-64
2023/12/19 00:08:48;;;;;;;73.68;40.58;;;3.90;73.70;;;;;;6344486;22;20059;-64
2023/12/19 00:11:14;;;;;;;68.28;37.28;;;3.80;73.90;;;;;;6345024;22;20302;-64
2023/12/19 00:13:40;;;;;;;71.60;40.08;;;3.80;74.10;;;;;;6344574;22;20002;-64
2023/12/19 00:16:06;;;;;;;70.95;39.40;;;3.90;74.10;;;;;;6345058;22;20270;-64
2023/12/19 00:18:32;;;;;;;64.88;36.75;;;3.90;73.90;;;;;;6344969;22;20069;-64
2023/12/19 00:20:58;;;;;;;65.45;36.72;;;3.80;73.90;;;;;;6344731;22;20045;-65
2023/12/19 00:23:26;;;;;;;64.78;36.28;;;3.80;73.90;;;;;;6345325;22;20017;-64
2023/12/19 00:25:51;;;;;;;64.88;36.30;;;3.90;74.10;;;;;;6344573;22;20406;-64
2023/12/19 00:28:17;;;;;;;65.80;37.10;;;3.90;74.20;;;;;;6345249;22;20038;-64
2023/12/19 00:30:43;;;;;;;73.18;40.25;;;3.90;74.30;;;;;;6345293;22;20006;-65
2023/12/19 00:33:09;;;;;;;65.28;36.40;;;3.90;74.10;;;;;;6344869;22;20002;-64
2023/12/19 00:35:35;;;;;;;63.38;36.40;;;3.90;74.10;;;;;;6344937;22;20014;-64
2023/12/19 00:38:04;;;;;;;63.53;36.17;;;3.90;73.90;;;;;;6344813;22;20315;-65
2023/12/19 00:40:30;;;;;;;68.35;37.55;;;3.90;73.80;;;;;;6344631;22;20022;-64
2023/12/19 00:42:56;;;;;;;63.53;36.78;;;3.90;73.70;;;;;;6344632;22;20385;-64
2023/12/19 00:45:22;;;;;;;63.45;36.03;;;3.90;73.70;;;;;;6317288;22;20037;-64
2023/12/19 00:47:48;;;;;;;73.45;40.17;;;3.80;73.70;;;;;;6343651;22;19999;-64
2023/12/19 00:50:15;;;;;;;65.82;38.17;;;3.80;73.90;;;;;;6342886;22;20392;-64
2023/12/19 00:52:42;;;;;;;68.28;37.17;;;3.80;73.80;;;;;;6342943;22;20265;-64
2023/12/19 00:55:08;;;;;;;64.47;37.28;;;3.80;73.80;;;;;;6342694;22;20007;-64
2023/12/19 00:57:34;;;;;;;72.47;38.83;;;3.80;73.90;;;;;;6342750;22;19999;-64
2023/12/19 01:00:00;;;;;;;63.95;35.75;;;3.70;73.50;;;;;;6343120;22;20329;-64
2023/12/19 01:02:31;;;;;;;57.97;33.58;;;3.70;73.70;;;;;;6315525;22;20014;-64
2023/12/19 01:04:57;;;;;;;68.20;38.78;;;3.60;73.70;;;;;;6342737;22;20407;-63
2023/12/19 01:07:24;;;;;;;63.92;36.70;;;3.60;73.80;;;;;;6342520;22;20011;-64
2023/12/19 01:09:50;;;;;;;58.13;33.83;;;3.60;73.60;;;;;;6343070;22;20090;-64
2023/12/19 01:12:18;;;;;;;66.70;36.97;;;3.50;73.70;;;;;;6342625;22;19999;-66
2023/12/19 01:14:44;;;;;;;62.17;34.58;;;3.50;73.80;;;;;;6315376;22;20003;-64
2023/12/19 01:17:11;;;;;;;60.70;34.95;;;3.50;73.80;;;;;;6343015;22;20457;-63
2023/12/19 01:19:37;;;;;;;69.95;40.28;;;3.50;73.90;;;;;;6342595;22;20023;-64
2023/12/19 01:22:04;;;;;;;67.85;38.67;;;3.50;73.40;;;;;;6343298;22;20027;-64
2023/12/19 01:24:30;;;;;;;67.80;37.58;;;3.40;73.60;;;;;;6343268;22;20026;-66
2023/12/19 01:26:56;;;;;;;59.42;32.17;;;3.40;73.90;;;;;;6342451;22;20323;-65
2023/12/19 01:29:22;;;;;;;60.53;34.30;;;3.40;74.10;;;;;;6342548;22;20022;-65
2023/12/19 01:31:49;;;;;;;68.72;37.35;;;3.40;74.10;;;;;;6342511;22;20082;-65
2023/12/19 01:34:15;;;;;;;62.30;34.50;;;3.50;74.00;;;;;;6342354;22;19998;-65
2023/12/19 01:36:41;;;;;;;58.22;31.77;;;3.50;74.10;;;;;;6342342;22;19999;-65
2023/12/19 01:39:10;;;;;;;71.13;35.83;;;3.50;74.10;;;;;;6315751;22;20099;-66
2023/12/19 01:41:36;;;;;;;61.72;32.92;;;3.50;73.80;;;;;;6342364;22;19999;-65
2023/12/19 01:44:02;;;;;;;57.00;31.23;;;3.50;73.90;;;;;;6343070;22;20081;-65
2023/12/19 01:46:28;;;;;;;58.25;34.40;;;3.50;73.70;;;;;;6342651;22;20088;-65
2023/12/19 01:48:55;;;;;;;58.00;32.17;;;3.40;73.80;;;;;;6343232;22;20364;-65
2023/12/19 01:51:21;;;;;;;56.22;31.30;;;3.40;73.60;;;;;;6342223;22;20051;-66
2023/12/19 01:53:49;;;;;;;52.05;29.63;;;3.40;73.60;;;;;;6342546;22;20077;-65
2023/12/19 01:56:17;;;;;;;56.40;30.98;;;3.40;73.80;;;;;;6342681;22;20070;-65
2023/12/19 01:58:44;;;;;;;58.70;32.00;;;3.40;73.90;;;;;;6341970;22;19995;-65
2023/12/19 02:01:12;;;;;;;60.83;30.83;;;3.40;74.00;;;;;;6342210;22;20334;-65
2023/12/19 02:03:40;;;;;;;58.95;34.83;;;3.40;73.90;;;;;;6342529;22;20041;-65
2023/12/19 02:06:07;;;;;;;65.78;33.80;;;3.50;74.10;;;;;;6316137;22;20010;-65
2023/12/19 02:08:34;;;;;;;49.45;29.58;;;3.40;74.30;;;;;;6341712;22;20014;-65
2023/12/19 02:11:00;;;;;;;57.30;30.08;;;3.40;74.00;;;;;;6342034;22;20388;-65
2023/12/19 02:13:27;;;;;;;46.25;24.92;;;3.40;74.10;;;;;;6342049;22;20048;-65
2023/12/19 02:15:53;;;;;;;51.03;29.67;;;3.40;74.10;;;;;;6342793;22;20021;-65
2023/12/19 02:18:20;;;;;;;53.20;30.88;;;3.40;74.10;;;;;;6342060;22;20025;-65
2023/12/19 02:20:47;;;;;;;58.22;31.48;;;3.40;74.10;;;;;;6342413;22;19994;-65
2023/12/19 02:23:13;;;;;;;48.65;28.80;;;3.30;73.80;;;;;;6342326;22;20013;-65
2023/12/19 02:25:40;;;;;;;49.28;28.70;;;3.30;74.10;;;;;;6342040;22;20005;-65
2023/12/19 02:28:07;;;;;;;52.03;29.65;;;3.30;73.80;;;;;;6342242;22;19999;-65
2023/12/19 02:30:36;;;;;;;46.42;27.05;;;3.30;73.90;;;;;;6342722;22;20007;-65
2023/12/19 02:33:02;;;;;;;55.17;28.88;;;3.30;73.90;;;;;;6342185;22;20010;-65
2023/12/19 02:35:28;;;;;;;48.85;26.08;;;3.30;74.10;;;;;;6341999;22;20005;-65
2023/12/19 02:37:55;;;;;;;46.10;25.60;;;3.30;74.00;;;;;;6341912;22;20376;-65
2023/12/19 02:40:21;;;;;;;43.05;25.92;;;3.30;74.20;;;;;;6342211;22;20026;-65
2023/12/19 02:42:47;;;;;;;39.60;25.35;;;3.30;74.30;;;;;;6341965;22;20093;-65
2023/12/19 02:45:15;;;;;;;49.28;26.52;;;3.30;74.30;;;;;;6342200;22;20033;-65
2023/12/19 02:47:41;;;;;;;46.58;27.30;;;3.30;74.20;;;;;;6341831;22;20025;-65
2023/12/19 02:50:07;;;;;;;45.97;26.17;;;3.30;74.30;;;;;;6341837;22;20005;-65
2023/12/19 02:52:33;;;;;;;47.80;26.30;;;3.30;73.90;;;;;;6341891;22;20073;-65
2023/12/19 02:54:59;;;;;;;50.63;26.50;;;3.30;74.00;;;;;;6342007;22;20033;-65
2023/12/19 02:57:25;;;;;;;44.20;25.13;;;3.20;73.90;;;;;;6341770;22;20388;-65
2023/12/19 02:59:51;;;;;;;44.17;24.38;;;3.30;73.80;;;;;;6342111;22;19999;-65
2023/12/19 03:02:17;;;;;;;51.25;27.05;;;3.20;73.90;;;;;;6342452;22;20006;-65
2023/12/19 03:04:43;;;;;;;48.47;27.60;;;3.20;73.80;;;;;;6342411;22;19998;-65
2023/12/19 03:07:10;;;;;;;44.45;23.92;;;3.10;74.00;;;;;;6341330;22;20384;-65
2023/12/19 03:09:36;;;;;;;44.42;24.50;;;3.10;74.20;;;;;;6342143;22;20003;-65
2023/12/19 03:12:06;;;;;;;42.15;23.70;;;3.10;74.30;;;;;;6341469;22;20059;-65
2023/12/19 03:14:34;;;;;;;44.38;25.05;;;3.10;74.10;;;;;;6341935;22;20006;-65
2023/12/19 03:17:01;;;;;;;43.53;23.67;;;3.20;74.50;;;;;;6341919;22;20021;-65
2023/12/19 03:19:28;;;;;;;43.95;26.20;;;3.20;74.50;;;;;;6341649;22;19994;-65
2023/12/19 03:21:54;;;;;;;41.92;23.40;;;3.10;74.10;;;;;;6342292;22;20011;-65
2023/12/19 03:24:21;;;;;;;45.10;25.40;;;3.10;74.20;;;;;;6341864;22;20030;-65
2023/12/19 03:26:46;;;;;;;43.17;23.45;;;3.10;74.40;;;;;;6341890;22;20078;-65
2023/12/19 03:29:12;;;;;;;40.58;22.77;;;3.10;74.30;;;;;;6342172;22;20030;-65
2023/12/19 03:31:38;;;;;;;40.92;21.83;;;3.00;74.20;;;;;;6341617;22;20381;-65
2023/12/19 03:34:05;;;;;;;39.25;22.60;;;3.00;74.40;;;;;;6341780;22;20006;-65
2023/12/19 03:36:31;;;;;;;43.88;23.33;;;3.00;74.40;;;;;;6341358;22;20392;-65
2023/12/19 03:38:57;;;;;;;40.70;24.35;;;3.00;74.30;;;;;;6341859;22;20281;-65
2023/12/19 03:41:23;;;;;;;35.03;19.38;;;3.00;74.30;;;;;;6341869;22;20070;-65
2023/12/19 03:43:49;;;;;;;39.47;21.25;;;3.00;74.10;;;;;;6341517;22;20011;-65
2023/12/19 03:46:15;;;;;;;37.90;18.75;;;3.00;74.50;;;;;;6342170;22;20006;-65
2023/12/19 03:48:45;;;;;;;35.88;19.30;;;3.00;74.40;;;;;;6341429;22;20278;-65
2023/12/19 03:51:14;;;;;;;39.20;20.80;;;3.00;74.30;;;;;;6342191;22;20078;-65
2023/12/19 03:53:40;;;;;;;36.58;19.67;;;3.00;74.30;;;;;;6341312;22;20427;-65
2023/12/19 03:56:06;;;;;;;38.83;20.80;;;3.00;74.50;;;;;;6341427;22;19995;-65
2023/12/19 03:58:33;;;;;;;36.67;19.98;;;3.00;74.50;;;;;;6341334;22;19999;-65
2023/12/19 04:01:02;;;;;;;35.83;19.65;;;3.00;74.40;;;;;;6342060;22;19994;-65
2023/12/19 04:03:28;;;;;;;34.30;18.15;;;2.90;74.10;;;;;;6341666;22;20068;-65
2023/12/19 04:05:54;;;;;;;33.17;19.13;;;2.90;74.20;;;;;;6341382;22;19999;-65
2023/12/19 04:08:20;;;;;;;31.23;17.50;;;2.90;74.30;;;;;;6341077;22;20064;-65
2023/12/19 04:10:46;;;;;;;29.85;16.27;;;2.90;74.50;;;;;;6341697;22;20297;-65
2023/12/19 04:13:12;;;;;;;32.63;17.73;;;2.90;74.30;;;;;;6341235;22;20403;-65
2023/12/19 04:15:38;;;;;;;30.02;15.93;;;2.90;74.30;;;;;;6341623;22;20022;-65
2023/12/19 04:18:04;;;;;;;28.33;16.60;;;3.00;74.30;;;;;;6341104;22;20430;-65
2023/12/19 04:20:30;;;;;;;29.00;16.25;;;3.00;74.50;;;;;;6341909;22;19999;-65
2023/12/19 04:22:56;;;;;;;26.63;16.00;;;3.00;74.20;;;;;;6342100;22;20053;-65
2023/12/19 04:25:22;;;;;;;32.47;16.23;;;3.00;74.40;;;;;;6343083;22;20002;-65
2023/12/19 04:27:48;;;;;;;27.08;16.13;;;3.00;74.00;;;;;;6343005;22;20001;-65
2023/12/19 04:30:14;;;;;;;28.10;15.82;;;2.90;73.90;;;;;;6343087;22;19995;-65
2023/12/19 04:32:41;;;;;;;30.23;17.45;;;3.00;74.10;;;;;;6343054;22;20045;-65
2023/12/19 04:35:07;;;;;;;30.63;17.60;;;2.90;74.20;;;;;;6343320;22;20002;-65
2023/12/19 04:37:33;;;;;;;30.85;16.23;;;2.90;74.30;;;;;;6343667;22;19999;-65
2023/12/19 04:39:59;;;;;;;28.85;16.25;;;2.90;74.30;;;;;;6343076;22;20045;-65
2023/12/19 04:42:25;;;;;;;29.02;16.50;;;2.90;74.00;;;;;;6343310;22;20026;-65
2023/12/19 04:44:51;;;;;;;26.63;15.45;;;2.90;74.00;;;;;;6342914;22;20269;-65
2023/12/19 04:47:17;;;;;;;29.30;15.50;;;2.90;74.30;;;;;;6343513;22;20403;-65
2023/12/19 04:49:43;;;;;;;27.98;16.17;;;2.90;74.30;;;;;;6342822;22;20077;-65
2023/12/19 04:52:09;;;;;;;29.25;17.33;;;2.90;74.30;;;;;;6343163;22;20069;-65
2023/12/19 04:54:35;;;;;;;27.63;16.48;;;2.90;74.40;;;;;;6343052;22;20023;-65
2023/12/19 04:57:01;;;;;;;30.05;17.38;;;2.90;74.20;;;;;;6343020;22;20006;-65
2023/12/19 04:59:27;;;;;;;31.05;16.48;;;2.90;74.40;;;;;;6342846;22;19998;-65
2023/12/19 05:01:53;;;;;;;28.50;16.70;;;2.90;74.40;;;;;;6342725;22;20053;-65
2023/12/19 05:04:19;;;;;;;29.92;16.52;;;2.90;74.40;;;;;;6343101;22;20014;-65
2023/12/19 05:06:45;;;;;;;29.25;17.20;;;2.90;74.50;;;;;;6342617;22;19999;-65
2023/12/19 05:09:11;;;;;;;32.58;16.67;;;2.90;74.60;;;;;;6342514;22;20011;-65
2023/12/19 05:11:37;;;;;;;28.55;15.75;;;2.80;74.50;;;;;;6342681;22;20003;-65
2023/12/19 05:14:03;;;;;;;32.05;15.35;;;2.90;74.50;;;;;;6342560;22;20086;-65
2023/12/19 05:16:29;;;;;;;28.13;16.40;;;2.90;74.40;;;;;;6343325;22;19995;-65
2023/12/19 05:18:55;;;;;;;23.33;13.73;;;2.90;74.40;;;;;;6342521;22;20026;-65
2023/12/19 05:21:21;;;;;;;27.63;14.82;;;2.80;74.50;;;;;;6342584;22;19995;-65
2023/12/19 05:23:48;;;;;;;24.90;15.90;;;2.80;74.30;;;;;;6342476;22;20006;-65
2023/12/19 05:26:14;;;;;;;28.85;15.25;;;2.80;74.40;;;;;;6342803;22;20116;-65
2023/12/19 05:28:40;;;;;;;25.52;14.57;;;2.80;74.70;;;;;;6342448;22;20397;-65
2023/12/19 05:31:10;;;;;;;26.23;15.38;;;2.80;74.40;;;;;;6342564;22;19998;-65
2023/12/19 05:33:36;;;;;;;27.52;15.40;;;2.80;74.50;;;;;;6316009;22;20006;-65
2023/12/19 05:36:03;;;;;;;23.00;13.65;;;2.80;74.60;;;;;;6315535;22;20412;-65
2023/12/19 05:38:32;;;;;;;29.15;14.57;;;2.80;74.60;;;;;;6342356;22;19995;-65
2023/12/19 05:40:58;;;;;;;24.85;13.73;;;2.80;74.40;;;;;;6342719;22;20023;-65
2023/12/19 05:43:24;;;;;;;30.90;15.43;;;2.80;74.60;;;;;;6342716;22;20399;-65
2023/12/19 05:45:50;;;;;;;25.13;14.20;;;2.80;74.60;;;;;;6342388;22;20067;-65
2023/12/19 05:48:16;;;;;;;23.85;13.43;;;2.80;74.60;;;;;;6342297;22;20473;-65
2023/12/19 05:50:42;;;;;;;27.48;14.80;;;2.80;74.60;;;;;;6342343;22;20037;-65
2023/12/19 05:53:09;;;;;;;28.80;14.52;;;2.80;74.80;;;;;;6342523;22;20011;-65
2023/12/19 05:55:35;;;;;;;24.08;13.85;;;2.70;74.70;;;;;;6342202;22;20003;-65
2023/12/19 05:58:01;;;;;;;28.75;14.23;;;2.70;74.70;;;;;;6342184;22;20034;-65
2023/12/19 06:00:27;;;;;;;26.17;15.68;;;2.70;74.70;;;;;;6342908;22;20033;-65
2023/12/19 06:02:53;;;;;;;26.30;15.05;;;2.70;74.90;;;;;;6342931;22;20428;-65
2023/12/19 06:05:19;;;;;;;24.63;15.15;;;2.70;75.00;;;;;;6342205;22;20042;-65
2023/12/19 06:07:46;;;;;;;27.35;15.20;;;2.70;75.00;;;;;;6341763;22;20014;-65
2023/12/19 06:10:13;;;;;;;27.15;16.02;;;2.70;74.70;;;;;;6342221;22;20124;-65
2023/12/19 06:12:40;;;;;;;22.67;13.93;;;2.70;74.40;;;;;;6342088;22;20014;-65
2023/12/19 06:15:12;;;;;;;25.17;14.25;;;2.70;74.30;;;;;;6342385;22;20442;-65
2023/12/19 06:17:48;;;;;;;27.58;15.93;;;2.60;74.10;;;;;;6341952;22;20013;-65
2023/12/19 06:20:14;;;;;;;26.73;15.05;;;2.50;74.10;;;;;;6342062;22;19998;-65
2023/12/19 06:22:43;;;;;;;27.10;15.05;;;2.50;74.40;;;;;;6342110;22;19999;-65
2023/12/19 06:25:09;;;;;;;27.05;15.25;;;2.50;74.60;;;;;;6342046;22;20334;-65
2023/12/19 06:27:35;;;;;;;27.85;15.55;;;2.50;74.90;;;;;;6314717;22;20003;-65
2023/12/19 06:30:05;;;;;;;29.45;15.93;;;2.50;75.10;;;;;;6342017;22;20007;-65
2023/12/19 06:32:31;;;;;;;33.13;17.52;;;2.50;74.70;;;;;;6342660;22;20372;-65
2023/12/19 06:34:58;;;;;;;23.98;14.15;;;2.50;74.80;;;;;;6314166;22;20049;-65
2023/12/19 06:37:24;;;;;;;26.13;14.93;;;2.50;74.50;;;;;;6342351;22;20380;-65
2023/12/19 06:39:51;;;;;;;32.55;16.15;;;2.50;74.60;;;;;;6341937;22;20007;-64
2023/12/19 06:42:17;;;;;;;29.45;16.63;;;2.50;74.50;;;;;;6342189;22;19999;-64
2023/12/19 06:44:44;;;;;;;31.83;16.50;;;2.50;74.70;;;;;;6342335;22;20041;-64
2023/12/19 06:47:09;;;;;;;30.13;15.23;;;2.50;74.50;;;;;;6341475;22;20023;-64
2023/12/19 06:49:35;;;;;;;33.17;18.55;;;2.50;74.40;;;;;;6341838;22;19994;-64
2023/12/19 06:52:01;;;;;;;32.85;18.08;;;2.50;74.70;;;;;;6341753;22;19999;-64
2023/12/19 06:54:28;;;;;;;30.75;16.63;;;2.50;74.80;;;;;;6314321;22;20006;-64
2023/12/19 06:56:54;;;;;;;30.52;15.68;;;2.50;74.70;;;;;;6341795;22;19995;-64
2023/12/19 06:59:21;;;;;;;31.75;15.63;;;2.50;74.80;;;;;;6342275;22;20006;-64
2023/12/19 07:01:48;;;;;;;32.10;17.65;;;2.60;74.80;;;;;;6341652;22;20005;-64
2023/12/19 07:04:14;;;;;;;32.30;17.77;;;2.60;75.00;;;;;;6342097;22;20003;-64
2023/12/19 07:06:40;;;;;;;30.70;17.77;;;2.60;75.00;;;;;;6342024;22;20024;-64
2023/12/19 07:09:06;;;;;;;32.20;17.95;;;2.60;75.00;;;;;;6341678;22;20003;-65
2023/12/19 07:11:32;;;;;;;30.80;17.65;;;2.70;75.10;;;;;;6341517;22;20072;-65
2023/12/19 07:13:58;;;;;;;29.67;16.55;;;2.70;75.10;;;;;;6341453;22;19999;-64
2023/12/19 07:16:25;;;;;;;34.70;17.83;;;2.70;74.80;;;;;;6341584;22;20468;-64
2023/12/19 07:18:51;;;;;;;29.70;15.18;;;2.80;75.00;;;;;;6341505;22;20009;-64
2023/12/19 07:21:27;;;;;;;29.70;15.27;;;2.70;74.80;;;;;;6341607;22;19995;-64
2023/12/19 07:23:53;;;;;;;29.60;15.70;;;2.80;74.80;;;;;;6342691;22;20083;-64
2023/12/19 07:26:20;;;;;;;30.27;13.82;;;2.80;75.10;;;;;;6341574;22;20003;-64
2023/12/19 07:28:46;;;;;;;25.98;14.32;;;2.80;75.10;;;;;;6341951;22;19999;-64
2023/12/19 07:31:32;;;;;;;28.05;15.18;;;2.80;75.20;;;;;;6341479;22;20006;-64
2023/12/19 07:34:06;;;;;;;30.20;15.43;;;2.90;75.00;;;;;;6341752;22;19998;-64
2023/12/19 07:36:33;;;;;;;26.55;15.48;;;2.90;75.20;;;;;;6341178;22;20049;-64
2023/12/19 07:38:59;;;;;;;26.35;14.98;;;2.90;75.10;;;;;;6342147;22;20070;-64
2023/12/19 07:41:26;;;;;;;26.42;15.93;;;2.90;75.30;;;;;;6341769;22;20033;-64
2023/12/19 07:43:56;;;;;;;28.17;15.13;;;2.90;75.40;;;;;;6341200;22;20043;-64
2023/12/19 07:46:22;;;;;;;27.25;15.13;;;2.90;75.30;;;;;;6314857;22;20003;-64
2023/12/19 07:48:51;;;;;;;27.15;14.85;;;3.00;75.40;;;;;;6341402;22;20010;-64
2023/12/19 07:53:51;;;;;;;24.35;12.95;;;3.10;75.60;;;;;;6303201;22;20042;-66
2023/12/19 07:56:18;;;;;;;23.80;13.52;;;3.20;75.50;;;;;;6341956;22;20273;-66
2023/12/19 07:58:45;;;;;;;26.42;12.98;;;3.20;75.50;;;;;;6343410;22;20045;-66
2023/12/19 08:01:14;;;;;;;30.50;15.25;;;3.30;75.70;;;;;;6343622;22;20002;-66
2023/12/19 08:03:43;;;;;;;24.65;14.40;;;3.40;76.00;;;;;;6343500;22;19998;-66
2023/12/19 08:06:10;;;;;;;33.38;15.82;;;3.50;75.80;;;;;;6343258;22;20074;-66
2023/12/19 08:08:43;;;;;;;32.70;15.52;;;3.60;76.00;;;;;;6343638;22;20064;-66
2023/12/19 08:11:12;;;;;;;37.30;19.20;;;3.80;75.80;;;;;;6343128;22;20282;-66
2023/12/19 08:13:37;;;;;;;36.85;19.65;;;3.90;76.30;;;;;;6343091;22;20009;-66
2023/12/19 08:16:05;;;;;;;37.70;18.33;;;4.00;76.70;;;;;;6315825;22;20081;-66
2023/12/19 08:18:31;;;;;;;38.30;19.70;;;4.20;76.50;;;;;;6315909;22;20396;-66
2023/12/19 08:20:56;;;;;;;33.10;17.40;;;4.30;76.30;;;;;;6343022;22;20435;-66
2023/12/19 08:23:22;;;;;;;39.97;20.50;;;4.50;76.20;;;;;;6342974;22;19999;-66
2023/12/19 08:25:48;;;;;;;37.30;18.50;;;4.60;76.40;;;;;;6343646;22;19998;-66
2023/12/19 08:28:14;;;;;;;35.65;18.58;;;4.80;76.10;;;;;;6315637;22;20034;-66
2023/12/19 08:30:40;;;;;;;38.80;19.85;;;4.90;76.00;;;;;;6342936;22;19998;-66
2023/12/19 08:33:06;;;;;;;40.47;19.65;;;5.10;76.10;;;;;;6343414;22;20003;-66
2023/12/19 08:35:32;;;;;;;30.85;16.63;;;5.30;75.90;;;;;;6343573;22;20009;-66
2023/12/19 08:37:58;;;;;;;34.10;17.85;;;5.50;75.70;;;;;;6343483;22;20070;-66
2023/12/19 08:40:24;;;;;;;32.60;16.85;;;5.70;75.50;;;;;;6343118;22;20043;-66
2023/12/19 08:42:53;;;;;;;27.90;14.45;;;5.90;75.40;;;;;;6343037;22;19999;-66
2023/12/19 08:45:22;;;;;;;24.25;14.25;;;6.00;75.10;;;;;;6342773;22;20345;-66
2023/12/19 08:47:49;;;;;;;21.73;12.85;;;6.20;75.00;;;;;;6316617;22;20026;-66
2023/12/19 08:50:15;;;;;;;24.48;13.40;;;6.30;74.80;;;;;;6343422;22;20281;-66
2023/12/19 08:52:42;;;;;;;23.80;13.45;;;6.50;74.50;;;;;;6318972;22;20319;-74
2023/12/19 08:55:12;;;;;;;21.10;13.10;;;6.70;74.40;;;;;;6348685;22;20010;-74
2023/12/19 08:57:43;;;;;;;29.20;18.52;;;6.90;74.20;;;;;;6349266;22;19998;-75
2023/12/19 09:00:16;;;;;;;32.10;18.80;;;7.00;73.60;;;;;;6349460;22;20006;-75
2023/12/19 09:02:46;;;;;;;24.00;15.13;;;7.10;73.60;;;;;;6348496;22;20409;-74
2023/12/19 09:05:14;;;;;;;27.08;16.38;;;7.30;73.20;;;;;;6348549;22;20002;-74
2023/12/19 09:07:41;;;;;;;33.05;17.58;;;7.40;73.10;;;;;;6344937;22;20007;-74
2023/12/19 09:10:08;;;;;;;25.92;14.75;;;7.60;73.40;;;;;;6270091;22;20039;-65
2023/12/19 09:12:35;;;;;;;24.55;14.48;;;7.70;73.40;;;;;;6311446;22;20019;-66
2023/12/19 09:15:02;;;;;;;28.08;15.30;;;7.80;72.80;;;;;;6311885;22;20086;-68
2023/12/19 09:17:29;;;;;;;27.52;17.15;;;7.90;72.80;;;;;;6311699;22;19999;-67
2023/12/19 09:19:55;;;;;;;35.00;20.25;;;8.00;72.90;;;;;;6294723;22;20386;-67
2023/12/19 09:22:22;;;;;;;33.22;19.45;;;8.10;72.50;;;;;;6280318;22;20392;-67
2023/12/19 09:24:48;;;;;;;28.35;18.02;;;8.20;72.30;;;;;;6280972;22;20095;-66
2023/12/19 09:27:14;;;;;;;29.73;17.60;;;8.40;72.10;;;;;;6280690;22;20276;-67
2023/12/19 09:29:40;;;;;;;29.73;18.40;;;8.50;71.90;;;;;;6280094;22;20440;-66
2023/12/19 09:32:07;;;;;;;31.80;19.88;;;8.60;71.90;;;;;;6280614;22;20401;-66
2023/12/19 09:34:42;;;;;;;35.10;20.27;;;8.70;71.60;;;;;;6280018;22;20439;-67
2023/12/19 09:37:09;;;;;;;26.52;17.92;;;8.80;71.30;;;;;;6280609;22;20000;-66
2023/12/19 09:39:36;;;;;;;28.52;15.57;;;8.90;71.10;;;;;;6280761;22;19995;-66
2023/12/19 09:42:03;;;;;;;22.52;14.30;;;8.90;70.90;;;;;;6253412;22;20397;-66
2023/12/19 09:44:29;;;;;;;23.08;13.15;;;9.00;70.70;;;;;;6280814;22;20039;-66
2023/12/19 09:46:55;;;;;;;20.38;12.52;;;9.10;70.20;;;;;;6280397;22;20011;-66
2023/12/19 09:49:24;;;;;;;16.13;10.63;;;9.30;69.80;;;;;;6280285;22;20035;-66
2023/12/19 09:51:52;;;;;;;19.17;11.32;;;9.40;69.50;;;;;;6280370;22;20069;-66
2023/12/19 09:54:22;;;;;;;17.17;10.48;;;9.50;69.40;;;;;;6280573;22;20083;-66
2023/12/19 09:56:50;;;;;;;16.83;10.43;;;9.60;69.20;;;;;;6306700;22;20010;-66
2023/12/19 09:59:19;;;;;;;18.00;10.40;;;9.70;69.10;;;;;;6342170;22;20005;-66
2023/12/19 10:01:46;;;;;;;15.77;10.70;;;9.80;69.00;;;;;;6342036;22;20007;-66
2023/12/19 10:04:16;;;;;;;17.23;10.23;;;9.90;68.70;;;;;;6342149;22;19995;-66
2023/12/19 10:06:56;;;;;;;16.40;10.10;;;10.00;68.30;;;;;;6342051;22;20003;-66
2023/12/19 10:09:25;;;;;;;17.85;10.40;;;10.10;68.00;;;;;;6342422;22;20026;-66
2023/12/19 10:12:09;;;;;;;17.13;9.70;;;10.20;67.90;;;;;;6342684;22;20026;-66
2023/12/19 10:14:36;;;;;;;16.85;9.88;;;10.30;67.60;;;;;;6342292;22;20388;-66
2023/12/19 10:17:07;;;;;;;16.55;9.27;;;10.40;67.00;;;;;;6342238;22;20384;-66
2023/12/19 10:19:34;;;;;;;16.63;9.10;;;10.40;66.50;;;;;;6342255;22;19994;-66
2023/12/19 10:22:16;;;;;;;16.88;9.27;;;10.50;66.20;;;;;;6314298;22;20002;-67
2023/12/19 10:24:42;;;;;;;13.57;8.10;;;10.60;65.70;;;;;;6342325;22;19999;-66
2023/12/19 10:27:08;;;;;;;15.63;9.25;;;10.70;65.30;;;;;;6314789;22;20102;-66
2023/12/19 10:29:38;;;;;;;16.45;9.65;;;10.80;65.20;;;;;;6342216;22;20019;-66
2023/12/19 10:32:17;;;;;;;15.80;10.00;;;10.90;64.40;;;;;;6342167;22;20304;-66
2023/12/19 10:34:44;;;;;;;16.08;10.35;;;11.00;63.40;;;;;;6342419;22;19999;-66
2023/12/19 10:37:20;;;;;;;17.13;9.32;;;11.00;63.40;;;;;;6341974;22;19995;-65
2023/12/19 10:39:50;;;;;;;14.95;8.70;;;11.20;63.90;;;;;;6341765;22;19998;-66
2023/12/19 10:42:19;;;;;;;16.85;9.60;;;11.30;63.40;;;;;;6342093;22;20392;-65
2023/12/19 10:44:45;;;;;;;16.73;10.77;;;11.30;62.80;;;;;;6342281;22;20053;-65
2023/12/19 10:47:12;;;;;;;19.40;12.30;;;11.40;62.80;;;;;;6314133;22;20055;-65
2023/12/19 10:49:38;;;;;;;18.65;11.05;;;11.40;61.20;;;;;;6341664;22;20007;-66
2023/12/19 10:52:06;;;;;;;19.13;12.10;;;11.50;61.80;;;;;;6341694;22;20069;-65
2023/12/19 10:54:36;;;;;;;20.52;12.20;;;11.60;61.70;;;;;;6341548;22;20014;-66
2023/12/19 10:57:18;;;;;;;18.33;12.40;;;11.60;61.40;;;;;;6341261;22;20017;-66
2023/12/19 10:59:58;;;;;;;19.75;12.45;;;11.60;61.00;;;;;;6342032;22;20371;-66
2023/12/19 11:02:49;;;;;;;20.77;11.70;;;11.70;61.80;;;;;;6342017;22;19994;-67
2023/12/19 11:05:33;;;;;;;16.73;11.23;;;11.80;61.20;;;;;;6342188;22;19999;-66
2023/12/19 11:11:09;;;;;;;18.25;10.98;;;11.90;61.40;;;;;;6324239;22;20072;-73
2023/12/19 11:13:37;;;;;;;15.07;9.25;;;11.90;61.10;;;;;;6342657;22;20400;-73
2023/12/19 11:16:12;;;;;;;21.00;11.52;;;12.00;61.00;;;;;;6270901;22;20047;-73
2023/12/19 11:19:04;;;;;;;16.52;9.55;;;12.10;60.50;;;;;;6311435;22;20024;-73
2023/12/19 11:21:42;;;;;;;15.23;9.50;;;12.20;60.10;;;;;;6254000;22;20007;-73
2023/12/19 11:24:17;;;;;;;13.80;8.60;;;12.30;60.30;;;;;;6321477;22;20369;-74
2023/12/19 11:26:53;;;;;;;13.35;7.70;;;12.40;60.20;;;;;;6294042;22;20003;-74
2023/12/19 11:29:45;;;;;;;15.50;8.13;;;12.40;60.50;;;;;;6264003;22;20015;-74
2023/12/19 11:32:29;;;;;;;14.75;8.35;;;12.40;58.30;;;;;;6262891;22;20015;-74
2023/12/19 11:35:08;;;;;;;13.52;7.85;;;12.50;58.10;;;;;;6289252;22;20056;-74
2023/12/19 11:37:34;;;;;;;12.80;7.20;;;12.60;58.70;;;;;;6262840;22;20296;-74
2023/12/19 11:40:00;;;;;;;13.38;8.05;;;12.70;58.90;;;;;;6290484;22;20054;-75
2023/12/19 11:45:35;;;;;;;11.77;8.27;;;12.80;58.40;;;;;;6321221;22;20360;-66
2023/12/19 11:48:02;;;;;;;13.45;8.45;;;12.90;58.60;;;;;;6314130;22;20034;-66
2023/12/19 11:50:40;;;;;;;12.75;6.93;;;13.00;58.30;;;;;;6341426;22;20025;-66
2023/12/19 11:53:07;;;;;;;12.52;7.88;;;13.00;58.60;;;;;;6341361;22;20399;-66
2023/12/19 11:55:33;;;;;;;12.05;7.65;;;13.10;58.10;;;;;;6341269;22;20003;-66
2023/12/19 11:58:10;;;;;;;13.63;7.55;;;13.20;58.10;;;;;;6341335;22;20292;-66
2023/12/19 12:00:37;;;;;;;13.60;8.38;;;13.20;58.20;;;;;;6341265;22;20005;-66
2023/12/19 12:03:10;;;;;;;11.27;7.90;;;13.30;57.80;;;;;;6341200;22;20341;-66
2023/12/19 12:05:36;;;;;;;12.95;7.93;;;13.40;58.20;;;;;;6317061;22;20057;-73
2023/12/19 12:08:03;;;;;;;12.90;7.65;;;13.40;57.60;;;;;;6342187;22;20007;-73
2023/12/19 12:10:30;;;;;;;12.48;7.88;;;13.40;57.00;;;;;;6342388;22;20485;-73
2023/12/19 12:12:59;;;;;;;13.68;7.93;;;13.50;57.30;;;;;;6342180;22;20073;-73
2023/12/19 12:15:26;;;;;;;12.90;8.15;;;13.50;57.30;;;;;;6342223;22;20054;-73
2023/12/19 12:18:02;;;;;;;15.25;8.48;;;13.60;57.30;;;;;;6342297;22;20046;-73
2023/12/19 12:20:32;;;;;;;13.43;8.27;;;13.60;57.70;;;;;;6342044;22;20003;-73
2023/12/19 12:22:58;;;;;;;13.18;7.70;;;13.60;56.80;;;;;;6342385;22;20064;-74
2023/12/19 12:25:24;;;;;;;11.93;7.40;;;13.70;57.00;;;;;;6342070;22;20006;-73
2023/12/19 12:27:55;;;;;;;12.38;7.50;;;13.70;56.80;;;;;;6341949;22;20010;-73
2023/12/19 12:30:23;;;;;;;12.50;7.55;;;13.70;56.80;;;;;;6342514;22;20007;-74
2023/12/19 12:32:49;;;;;;;14.20;7.88;;;13.80;57.10;;;;;;6342251;22;20002;-73
2023/12/19 12:35:28;;;;;;;11.38;7.35;;;13.80;57.00;;;;;;6341901;22;20013;-73
2023/12/19 12:38:03;;;;;;;13.82;8.70;;;13.80;57.20;;;;;;6342170;22;20076;-73
2023/12/19 12:40:29;;;;;;;12.45;7.95;;;13.80;56.90;;;;;;6342294;22;19999;-73
2023/12/19 12:43:49;;;;;;;13.00;7.80;;;13.80;56.60;;;;;;6342658;22;20026;-74
2023/12/19 12:46:19;;;;;;;15.02;7.90;;;13.90;56.30;;;;;;6346652;22;19999;-74
2023/12/19 12:48:53;;;;;;;11.60;7.45;;;13.90;56.60;;;;;;6319965;22;20046;-75